Time;durP1;ratioP1;P1;durP2;ratioP2;P2;SDS_P1;SDS_P2;PMS_P1;PMS_P2;Temp;Humidity;BMP_temperature;BMP_pressure;BME280_temperature;BME280_humidity;BME280_pressure;Samples;Min_cycle;Max_cycle;Signal;HPM_P1;HPM_P2
2021/06/06 00:00:48;;;;;;;78.93;50.10;;;;;;;-150.07;55.92;63192.84;5004443;28;20034;-79
2021/06/06 00:03:24;;;;;;;68.57;46.85;;;;;;;-150.07;55.58;63605.28;5011634;28;20030;-77
2021/06/06 00:05:55;;;;;;;67.25;44.20;;;;;;;-150.07;56.06;63435.69;4987073;28;20037;-78
2021/06/06 00:08:24;;;;;;;80.07;49.17;;;;;;;-150.07;55.85;63481.75;4978814;28;20034;-78
2021/06/06 00:10:55;;;;;;;73.30;50.30;;;;;;;-150.07;55.78;63479.66;4979723;28;20034;-80
2021/06/06 00:13:23;;;;;;;73.30;48.65;;;;;;;-150.07;56.06;63546.66;4992143;28;20034;-77
2021/06/06 00:15:51;;;;;;;71.07;46.50;;;;;;;-150.07;56.47;63299.59;5001365;28;20030;-76
2021/06/06 00:18:18;;;;;;;76.28;46.75;;;;;;;-150.07;56.32;63506.88;4997358;28;20720;-79
2021/06/06 00:20:45;;;;;;;70.55;45.35;;;;;;;-150.07;56.38;63272.38;5011455;28;20034;-82
2021/06/06 00:23:12;;;;;;;64.38;44.50;;;;;;;-150.07;55.65;63458.72;5009990;28;20037;-77
2021/06/06 00:25:40;;;;;;;61.67;42.83;;;;;;;-150.07;55.79;63829.28;4992463;28;20032;-78
2021/06/06 00:28:07;;;;;;;65.45;41.70;;;;;;;-150.07;55.86;63331.00;4981140;28;20437;-77
2021/06/06 00:30:36;;;;;;;63.30;36.65;;;;;;;-150.07;55.35;63364.50;4994966;28;20032;-80
2021/06/06 00:33:03;;;;;;;65.47;35.95;;;;;;;-150.07;55.08;63906.75;5011502;28;20064;-81
2021/06/06 00:35:30;;;;;;;46.70;31.48;;;;;;;-150.07;53.95;63241.00;5012419;28;20034;-80
2021/06/06 00:37:57;;;;;;;47.92;32.00;;;;;;;-150.07;54.14;63299.59;4994754;28;20497;-80
2021/06/06 00:40:28;;;;;;;44.00;29.27;;;;;;;-150.07;54.22;63818.81;5011274;28;20033;-80
2021/06/06 00:42:55;;;;;;;40.97;29.42;;;;;;;-150.07;54.32;63333.09;5009081;28;20546;-79
2021/06/06 00:45:26;;;;;;;43.25;27.90;;;;;;;-150.07;53.60;63473.38;4996432;28;20044;-79
2021/06/06 00:47:53;;;;;;;50.33;28.58;;;;;;;-150.07;52.41;63601.09;5004514;28;20038;-79
2021/06/06 00:50:33;;;;;;;38.40;28.27;;;;;;;-150.07;52.15;63603.19;5003464;28;20034;-80
2021/06/06 00:53:05;;;;;;;39.05;28.08;;;;;;;-150.07;51.82;63718.31;4988300;28;20511;-80
2021/06/06 00:55:33;;;;;;;43.33;28.35;;;;;;;-150.07;52.55;63718.31;5003863;28;20034;-80
2021/06/06 00:58:03;;;;;;;42.47;27.88;;;;;;;-150.07;51.19;63676.44;4993074;28;20038;-79
2021/06/06 01:00:32;;;;;;;42.05;27.67;;;;;;;-150.07;50.86;63843.94;4974728;28;20146;-79
2021/06/06 01:03:01;;;;;;;45.05;26.95;;;;;;;-150.07;50.83;63697.38;5001553;28;20044;-80
2021/06/06 01:05:38;;;;;;;33.20;25.55;;;;;;;-150.07;50.60;63890.00;4996073;28;20124;-79
2021/06/06 01:08:09;;;;;;;36.58;26.92;;;;;;;-150.07;49.60;64666.91;5009883;28;20033;-79
2021/06/06 01:10:36;;;;;;;33.63;25.42;;;;;;;-150.07;50.24;63642.94;5007066;28;20030;-80
2021/06/06 01:13:14;;;;;;;36.13;25.08;;;;;;;-150.07;50.60;63850.22;5010791;28;20049;-79
2021/06/06 01:15:41;;;;;;;39.65;27.00;;;;;;;-150.07;50.55;63902.56;4999056;28;20026;-79
2021/06/06 01:18:27;;;;;;;42.45;27.30;;;;;;;-150.07;51.01;63772.75;4999514;28;20108;-79
2021/06/06 01:20:57;;;;;;;38.72;27.80;;;;;;;-150.07;51.44;63739.25;5005785;28;20064;-79
2021/06/06 01:23:43;;;;;;;36.17;25.35;;;;;;;-150.07;51.83;63722.50;5009920;28;20389;-79
2021/06/06 01:26:25;;;;;;;37.45;26.88;;;;;;;-150.07;50.94;63797.88;5000162;28;20376;-79
2021/06/06 01:29:30;;;;;;;37.10;27.38;;;;;;;-150.07;51.67;63728.78;5002873;28;20629;-80
2021/06/06 01:32:03;;;;;;;45.55;28.42;;;;;;;-150.07;51.54;63722.50;5005371;28;20120;-79
2021/06/06 01:34:32;;;;;;;41.92;27.10;;;;;;;-150.07;51.24;63768.56;4995701;28;20023;-77
2021/06/06 01:37:21;;;;;;;38.97;25.75;;;;;;;-150.07;51.18;63756.00;4992245;28;20121;-79
2021/06/06 01:40:02;;;;;;;33.47;26.48;;;;;;;-150.07;51.01;63737.16;4992962;28;20054;-78
2021/06/06 01:42:34;;;;;;;33.15;24.35;;;;;;;-150.07;50.51;63615.75;4992266;28;20034;-80
2021/06/06 01:45:16;;;;;;;44.30;26.20;;;;;;;-150.07;50.25;63825.09;4974887;28;20416;-79
2021/06/06 01:47:46;;;;;;;41.92;27.40;;;;;;;-150.07;50.61;63802.06;4984770;28;20120;-81
2021/06/06 01:50:19;;;;;;;37.45;26.23;;;;;;;-150.07;50.65;63630.38;5016725;28;20038;-80
2021/06/06 01:52:48;;;;;;;40.60;27.25;;;;;;;-150.07;51.24;63810.44;4997714;28;20173;-78
2021/06/06 01:55:19;;;;;;;44.80;27.27;;;;;;;-150.07;51.17;63617.81;5011295;28;20415;-80
2021/06/06 01:57:48;;;;;;;44.60;27.65;;;;;;;-150.07;50.41;63869.06;5006909;28;20026;-79
2021/06/06 02:00:24;;;;;;;38.90;23.93;;;;;;;-150.07;50.43;63900.47;4987430;28;20133;-77
2021/06/06 02:02:51;;;;;;;38.63;27.17;;;;;;;-150.07;50.62;63814.63;4996195;28;20025;-78
2021/06/06 02:05:19;;;;;;;37.83;24.45;;;;;;;-150.07;50.83;63743.44;5002453;28;20507;-77
2021/06/06 02:07:50;;;;;;;37.22;25.75;;;;;;;-150.07;51.31;63613.66;5009150;28;20103;-79
2021/06/06 02:10:25;;;;;;;36.75;25.83;;;;;;;-150.07;50.81;63871.16;5004262;28;20058;-79
2021/06/06 02:13:07;;;;;;;35.25;26.38;;;;;;;-150.07;51.03;63860.69;5003373;28;20017;-79
2021/06/06 02:15:37;;;;;;;37.97;24.75;;;;;;;-150.07;50.56;63575.97;5003612;28;20029;-79
2021/06/06 02:18:05;;;;;;;44.00;25.73;;;;;;;-150.07;51.05;63756.00;5000986;28;20056;-77
2021/06/06 02:20:40;;;;;;;39.38;25.75;;;;;;;-150.07;50.39;63860.69;5005885;28;20030;-78
2021/06/06 02:23:08;;;;;;;34.40;26.15;;;;;;;-150.07;50.30;63925.63;4989884;28;20102;-76
2021/06/06 02:25:37;;;;;;;33.78;24.70;;;;;;;-150.07;50.17;63944.47;4981181;28;20030;-79
2021/06/06 02:28:16;;;;;;;34.13;23.15;;;;;;;-150.07;50.38;64032.41;5000284;28;20110;-78
2021/06/06 02:30:55;;;;;;;32.35;21.75;;;;;;;-150.07;50.08;63764.38;4990840;28;20037;-79
2021/06/06 02:33:46;;;;;;;35.75;22.92;;;;;;;-150.07;49.22;63944.47;4997528;28;20022;-79
2021/06/06 02:36:17;;;;;;;37.20;21.73;;;;;;;-150.07;49.19;63592.72;4982954;28;20038;-79
2021/06/06 02:38:53;;;;;;;34.63;21.45;;;;;;;-150.07;49.39;63944.47;5004880;28;20060;-77
2021/06/06 02:41:25;;;;;;;44.10;20.60;;;;;;;-150.07;49.35;64013.56;5010773;28;20112;-79
2021/06/06 02:44:10;;;;;;;37.63;20.30;;;;;;;-150.07;49.43;64036.59;4993714;28;20030;-81
2021/06/06 02:46:40;;;;;;;45.88;21.02;;;;;;;-150.07;49.00;64815.59;4990820;28;20046;-82
2021/06/06 02:49:23;;;;;;;33.30;19.55;;;;;;;-150.07;49.08;63957.03;4986486;28;20026;-79
2021/06/06 02:52:05;;;;;;;28.88;19.25;;;;;;;-150.07;48.75;63804.16;4988331;28;20038;-80
2021/06/06 02:54:46;;;;;;;33.55;19.33;;;;;;;-150.07;48.69;63812.53;5006812;28;20084;-85
2021/06/06 02:57:18;;;;;;;29.73;19.02;;;;;;;-150.07;48.82;64030.31;5010734;28;20037;-79
2021/06/06 02:59:53;;;;;;;35.65;19.65;;;;;;;-150.07;48.28;64024.03;5011741;28;20074;-84
2021/06/06 03:02:25;;;;;;;28.67;19.13;;;;;;;-150.07;48.30;64024.03;5015637;28;20104;-77
2021/06/06 03:05:01;;;;;;;34.33;21.92;;;;;;;-150.07;48.61;63944.47;5015642;28;20021;-84
2021/06/06 03:07:39;;;;;;;30.70;19.88;;;;;;;-150.07;48.66;64185.25;4994968;28;20486;-83
2021/06/06 03:10:08;;;;;;;33.50;19.45;;;;;;;-150.07;48.52;64909.81;4998162;28;20041;-79
2021/06/06 03:12:37;;;;;;;30.30;19.13;;;;;;;-150.07;48.43;64170.59;5016309;28;20026;-82
2021/06/06 03:15:08;;;;;;;34.85;19.40;;;;;;;-150.07;48.35;64277.38;4995734;28;20025;-83
2021/06/06 03:17:39;;;;;;;33.80;18.63;;;;;;;-150.07;48.11;64229.22;4996299;28;20037;-82
2021/06/06 03:20:16;;;;;;;32.13;20.83;;;;;;;-150.07;47.70;64197.81;5008713;28;20058;-82
2021/06/06 03:22:46;;;;;;;36.25;23.08;;;;;;;-150.07;47.79;64101.50;4996948;28;20032;-82
2021/06/06 03:25:42;;;;;;;40.35;24.42;;;;;;;-150.07;47.61;64245.97;4996506;28;20025;-83
2021/06/06 03:28:11;;;;;;;32.97;22.15;;;;;;;-150.07;47.92;64254.34;5013286;28;20026;-81
2021/06/06 03:30:45;;;;;;;48.15;22.48;;;;;;;-150.07;48.14;64214.56;4997475;28;20510;-82
2021/06/06 03:33:19;;;;;;;32.45;20.80;;;;;;;-150.07;47.96;64287.84;5019385;28;20022;-82
2021/06/06 03:35:46;;;;;;;30.98;19.85;;;;;;;-150.07;47.60;64176.88;5032871;28;20036;-83
2021/06/06 03:38:15;;;;;;;32.17;18.90;;;;;;;-150.07;47.99;64220.84;5001684;28;20034;-82
2021/06/06 03:40:45;;;;;;;34.83;19.83;;;;;;;-150.07;47.53;64187.34;5026237;28;20017;-82
2021/06/06 03:43:15;;;;;;;27.30;17.73;;;;;;;-150.07;47.73;64225.03;5003572;28;20045;-82
2021/06/06 03:45:42;;;;;;;32.47;19.23;;;;;;;-150.07;47.54;64191.53;5002373;28;20060;-82
2021/06/06 03:48:10;;;;;;;28.48;17.50;;;;;;;-150.07;48.07;64283.66;5023701;28;20502;-80
2021/06/06 03:50:40;;;;;;;31.02;18.63;;;;;;;-150.07;47.53;64855.38;5002515;28;20030;-80
2021/06/06 03:53:07;;;;;;;35.03;19.52;;;;;;;-150.07;47.91;64304.59;5011264;28;20026;-81
2021/06/06 03:55:34;;;;;;;30.30;20.05;;;;;;;-150.07;47.88;64233.41;5000042;28;20037;-78
2021/06/06 03:58:03;;;;;;;31.33;18.10;;;;;;;-150.07;47.87;64463.75;5021670;28;20041;-82
2021/06/06 04:00:51;;;;;;;31.30;20.25;;;;;;;-150.07;47.63;64264.81;5032198;28;20026;-82
2021/06/06 04:03:19;;;;;;;31.58;17.98;;;;;;;-150.07;47.64;64300.44;5013546;28;20056;-82
2021/06/06 04:05:57;;;;;;;43.35;23.35;;;;;;;-150.07;47.70;64287.84;5022593;28;20034;-81
2021/06/06 04:08:24;;;;;;;30.67;20.65;;;;;;;-150.07;47.52;64199.91;5017813;28;20132;-81
2021/06/06 04:10:52;;;;;;;30.45;20.27;;;;;;;-150.07;47.14;64315.09;5016868;28;20040;-81
2021/06/06 04:13:19;;;;;;;26.70;21.58;;;;;;;-150.07;47.29;64306.69;4998454;28;20030;-81
2021/06/06 04:15:46;;;;;;;34.90;22.63;;;;;;;-150.07;46.86;64082.66;4997367;28;20034;-81
2021/06/06 04:18:18;;;;;;;30.77;21.08;;;;;;;-150.07;47.42;64061.72;5014268;28;20046;-82
2021/06/06 04:20:47;;;;;;;39.78;22.75;;;;;;;-150.07;47.82;64193.63;5014316;28;20049;-82
2021/06/06 04:23:14;;;;;;;36.13;21.80;;;;;;;-150.07;47.64;65014.53;5019267;28;20026;-82
2021/06/06 04:25:41;;;;;;;34.05;22.13;;;;;;;-150.07;47.44;64392.56;5021602;28;20026;-80
2021/06/06 04:28:09;;;;;;;33.38;22.58;;;;;;;-150.07;47.10;64417.69;5019823;28;20045;-81
2021/06/06 04:30:37;;;;;;;31.27;22.67;;;;;;;-150.07;46.76;64501.44;5014489;28;20030;-82
2021/06/06 04:33:09;;;;;;;34.83;22.40;;;;;;;-150.07;46.81;63998.91;5014121;28;20026;-79
2021/06/06 04:35:41;;;;;;;36.08;23.95;;;;;;;-150.07;47.22;64273.19;5014328;28;20030;-81
2021/06/06 04:38:10;;;;;;;34.63;21.67;;;;;;;-150.07;47.05;64484.69;4996224;28;20026;-81
2021/06/06 04:40:38;;;;;;;34.58;24.50;;;;;;;-150.07;47.71;64407.22;4995940;28;20029;-81
2021/06/06 04:43:05;;;;;;;34.00;22.10;;;;;;;-150.07;47.90;64400.94;4996213;28;20026;-82
2021/06/06 04:45:33;;;;;;;35.17;23.33;;;;;;;-150.07;47.45;64493.06;4996079;28;20026;-80
2021/06/06 04:48:16;;;;;;;30.83;22.17;;;;;;;-150.07;46.95;64541.25;4988393;28;20131;-79
2021/06/06 04:50:44;;;;;;;37.42;24.08;;;;;;;-150.07;47.18;64509.84;4990338;28;20034;-80
2021/06/06 04:53:11;;;;;;;34.88;22.95;;;;;;;-150.07;47.19;64547.53;4997108;28;20549;-81
2021/06/06 04:55:39;;;;;;;36.10;23.73;;;;;;;-150.07;47.03;64534.97;4977627;28;20391;-82
2021/06/06 04:58:10;;;;;;;31.15;23.45;;;;;;;-150.07;46.81;64589.41;4996687;28;20141;-81
2021/06/06 05:00:40;;;;;;;33.75;21.75;;;;;;;-150.07;46.34;64551.72;5009796;28;20045;-82
2021/06/06 05:03:09;;;;;;;31.33;19.48;;;;;;;-150.07;46.10;64614.53;5002609;28;20038;-80
2021/06/06 05:05:36;;;;;;;28.80;19.25;;;;;;;-150.07;46.59;64511.94;4995963;28;20160;-80
2021/06/06 05:08:04;;;;;;;33.55;20.05;;;;;;;-150.07;47.32;64342.31;4995762;28;20034;-82
2021/06/06 05:10:35;;;;;;;33.97;20.10;;;;;;;-150.07;48.68;64878.41;5013370;28;20171;-81
2021/06/06 05:13:03;;;;;;;33.05;20.38;;;;;;;-150.07;49.39;64208.28;5012651;28;20033;-82
2021/06/06 05:15:30;;;;;;;40.10;22.05;;;;;;;-150.07;49.72;64049.16;4998688;28;20029;-83
2021/06/06 05:17:57;;;;;;;33.53;21.80;;;;;;;-150.07;50.38;64063.81;5012661;28;20046;-82
2021/06/06 05:20:28;;;;;;;35.72;23.42;;;;;;;-150.07;49.78;64051.25;4995019;28;20070;-82
2021/06/06 05:22:55;;;;;;;30.70;22.00;;;;;;;-150.07;50.60;64470.03;4995724;28;20018;-82
2021/06/06 05:25:22;;;;;;;37.45;23.73;;;;;;;-150.07;50.76;63929.78;5012275;28;20502;-82
2021/06/06 05:27:49;;;;;;;36.60;21.17;;;;;;;-150.07;50.55;64028.22;4994474;28;20565;-82
2021/06/06 05:30:22;;;;;;;36.78;23.42;;;;;;;-150.07;51.12;63965.41;5012140;28;20044;-83
2021/06/06 05:32:50;;;;;;;33.42;23.45;;;;;;;-150.07;50.89;63843.94;5020350;28;20491;-83
2021/06/06 05:35:18;;;;;;;32.55;21.45;;;;;;;-150.07;50.58;64141.28;5008148;28;20097;-83
2021/06/06 05:37:45;;;;;;;37.95;21.13;;;;;;;-150.07;49.99;64195.72;5024378;28;20006;-81
2021/06/06 05:40:13;;;;;;;27.73;19.48;;;;;;;-150.07;49.50;64995.69;5005833;28;20048;-85
2021/06/06 05:42:40;;;;;;;48.80;22.20;;;;;;;-150.07;49.32;64243.88;5026850;28;20030;-83
2021/06/06 05:45:07;;;;;;;30.95;21.10;;;;;;;-150.07;48.41;64296.22;5013191;28;20034;-78
2021/06/06 05:47:34;;;;;;;31.95;20.50;;;;;;;-150.07;48.52;64292.03;5000718;28;20029;-79
2021/06/06 05:50:01;;;;;;;32.80;20.42;;;;;;;-150.07;48.21;64258.53;5005483;28;20466;-81
2021/06/06 05:52:28;;;;;;;28.88;18.75;;;;;;;-150.07;48.17;64350.69;4996008;28;20040;-79
2021/06/06 05:54:54;;;;;;;40.50;20.25;;;;;;;-150.07;48.46;64470.03;4950291;28;20030;-79
2021/06/06 05:57:21;;;;;;;31.80;19.10;;;;;;;-150.07;47.72;64534.97;4957862;28;20377;-81
2021/06/06 05:59:48;;;;;;;32.28;19.90;;;;;;;-150.07;48.23;64139.19;4953233;28;20023;-80
2021/06/06 06:02:15;;;;;;;32.95;23.58;;;;;;;-150.07;47.91;64105.69;4953598;28;20114;-80
2021/06/06 06:04:42;;;;;;;33.72;21.65;;;;;;;-150.07;47.88;64225.03;4953567;28;20057;-80
2021/06/06 06:07:08;;;;;;;34.60;22.25;;;;;;;-150.07;48.05;64308.81;4954604;28;20074;-79
2021/06/06 06:09:35;;;;;;;44.10;24.67;;;;;;;-150.07;47.38;64344.41;4951972;29;20126;-78
2021/06/06 06:12:03;;;;;;;31.17;20.48;;;;;;;-150.07;47.70;64413.50;4952569;29;20370;-83
2021/06/06 06:14:30;;;;;;;33.95;21.90;;;;;;;-150.07;49.25;64974.75;4957498;29;20031;-85
2021/06/06 06:16:57;;;;;;;29.42;20.63;;;;;;;-150.07;50.47;63944.47;4955688;29;20039;-88
2021/06/06 06:19:24;;;;;;;31.75;19.58;;;;;;;-150.07;50.46;64876.31;4955170;29;20450;-82
2021/06/06 06:21:51;;;;;;;33.47;21.15;;;;;;;-150.07;49.90;64047.06;4950897;29;20094;-85
2021/06/06 06:24:17;;;;;;;32.42;20.40;;;;;;;-150.07;50.28;63856.50;4951701;29;20028;-86
2021/06/06 06:26:44;;;;;;;38.60;22.60;;;;;;;-150.07;50.76;63938.16;4952480;29;20050;-85
2021/06/06 06:29:12;;;;;;;42.13;24.00;;;;;;;-150.07;51.36;63957.03;4954311;28;20031;-85
2021/06/06 06:31:39;;;;;;;35.55;20.98;;;;;;;-150.07;51.77;63938.16;4951505;29;20035;-87
2021/06/06 06:34:06;;;;;;;36.67;21.35;;;;;;;-150.07;51.97;63906.75;4951582;29;20035;-83
2021/06/06 06:36:33;;;;;;;36.05;20.65;;;;;;;-150.07;51.37;63862.78;4951899;29;20023;-81
2021/06/06 06:39:00;;;;;;;42.47;23.60;;;;;;;-150.07;51.57;63596.91;4953427;28;20539;-86
2021/06/06 06:41:29;;;;;;;39.42;19.77;;;;;;;-150.07;51.51;63848.13;4951132;29;20601;-86
2021/06/06 06:43:59;;;;;;;42.30;22.15;;;;;;;-150.07;51.95;63661.78;4952069;29;20031;-85
2021/06/06 06:46:26;;;;;;;42.33;22.15;;;;;;;-150.07;52.30;63563.41;4955047;28;20103;-85
2021/06/06 06:48:55;;;;;;;35.67;22.00;;;;;;;-150.07;52.13;63684.81;4952752;28;20031;-85
2021/06/06 06:51:23;;;;;;;40.63;21.98;;;;;;;-150.07;53.01;64438.63;4951908;28;20042;-85
2021/06/06 06:53:54;;;;;;;35.97;20.90;;;;;;;-150.07;52.48;63806.25;4955336;28;20042;-83
2021/06/06 06:56:26;;;;;;;32.20;19.35;;;;;;;-150.07;52.05;63908.84;4953925;28;20473;-81
2021/06/06 06:58:55;;;;;;;28.70;20.83;;;;;;;-150.07;52.29;63825.09;4952954;29;20024;-84
2021/06/06 07:01:23;;;;;;;37.40;21.13;;;;;;;-150.07;52.38;63760.19;4952074;28;20090;-83
2021/06/06 07:03:50;;;;;;;35.60;20.20;;;;;;;-150.07;53.13;63701.56;4953722;28;20039;-82
2021/06/06 07:06:19;;;;;;;40.97;20.40;;;;;;;-150.07;53.67;63508.97;4958606;28;20043;-85
2021/06/06 07:08:46;;;;;;;35.47;20.73;;;;;;;-150.07;53.49;63500.59;4952245;29;20049;-84
2021/06/06 07:11:16;;;;;;;37.30;21.45;;;;;;;-150.07;53.36;63726.69;4949871;29;20444;-82
2021/06/06 07:13:44;;;;;;;33.38;18.73;;;;;;;-150.07;52.87;63789.50;4953571;28;20028;-81
2021/06/06 07:16:12;;;;;;;38.13;20.65;;;;;;;-150.07;52.98;63743.44;4952457;28;20027;-82
2021/06/06 07:18:40;;;;;;;29.35;18.85;;;;;;;-150.07;53.20;63802.06;4950609;29;20496;-82
2021/06/06 07:21:12;;;;;;;49.17;22.10;;;;;;;-150.07;54.03;63500.59;4948826;29;20534;-82
2021/06/06 07:23:41;;;;;;;37.92;19.02;;;;;;;-150.07;54.17;64321.38;4950309;28;20504;-83
2021/06/06 07:26:15;;;;;;;32.28;17.90;;;;;;;-150.07;54.02;63483.84;4950136;29;20035;-82
2021/06/06 07:28:42;;;;;;;47.70;19.98;;;;;;;-150.07;54.85;63408.47;4949061;28;20404;-82
2021/06/06 07:31:10;;;;;;;34.45;19.20;;;;;;;-150.07;54.92;63513.16;4949853;28;20030;-83
2021/06/06 07:33:42;;;;;;;35.08;19.05;;;;;;;-150.07;54.81;63349.84;4951863;28;20400;-83
2021/06/06 07:36:15;;;;;;;35.15;19.23;;;;;;;-150.07;54.75;63414.75;4952373;28;20031;-81
2021/06/06 07:38:42;;;;;;;44.92;19.48;;;;;;;-150.07;54.25;63517.34;4954177;28;20035;-81
2021/06/06 07:41:09;;;;;;;31.25;17.88;;;;;;;-150.07;54.91;63529.91;4952024;28;20063;-82
2021/06/06 07:43:36;;;;;;;33.50;17.30;;;;;;;-150.07;55.05;63213.78;4951700;29;20063;-84
2021/06/06 07:46:03;;;;;;;41.05;18.13;;;;;;;-150.07;54.69;63421.03;4952369;29;20043;-81
2021/06/06 07:48:30;;;;;;;38.38;18.20;;;;;;;-150.07;55.16;63249.38;4957648;28;20039;-82
2021/06/06 07:50:57;;;;;;;38.05;20.20;;;;;;;-150.07;55.00;63458.72;4954139;28;20037;-82
2021/06/06 07:53:24;;;;;;;42.35;20.25;;;;;;;-150.07;54.51;63362.41;4953057;28;20563;-79
2021/06/06 07:55:53;;;;;;;35.33;18.88;;;;;;;-150.07;54.19;63529.91;4955973;29;20040;-79
2021/06/06 07:58:28;;;;;;;38.47;17.90;;;;;;;-150.07;54.25;63559.22;4957622;28;20057;-81
2021/06/06 08:00:55;;;;;;;38.28;19.70;;;;;;;-150.07;53.82;63601.09;4956041;29;20086;-84
2021/06/06 08:03:24;;;;;;;34.50;18.80;;;;;;;-150.07;53.58;63552.94;4966318;29;20051;-82
2021/06/06 08:05:51;;;;;;;38.58;18.95;;;;;;;-150.07;53.54;63488.03;4968504;28;20511;-81
2021/06/06 08:08:19;;;;;;;56.28;20.90;;;;;;;-150.07;54.07;63540.38;4964563;29;20035;-83
2021/06/06 08:10:52;;;;;;;40.10;18.70;;;;;;;-150.07;54.60;63515.25;4948311;28;20059;-83
2021/06/06 08:13:19;;;;;;;31.55;19.92;;;;;;;-150.07;53.79;63559.22;4951099;29;20028;-80
2021/06/06 08:15:47;;;;;;;57.67;21.45;;;;;;;-150.07;53.55;63994.72;4955231;29;20043;-81
2021/06/06 08:18:19;;;;;;;49.33;22.75;;;;;;;-150.07;53.77;63622.03;4978585;28;20586;-81
2021/06/06 08:20:51;;;;;;;32.72;18.05;;;;;;;-150.07;54.03;63617.81;4981647;28;20041;-79
2021/06/06 08:23:19;;;;;;;37.97;19.95;;;;;;;-150.07;53.98;63613.66;4978857;28;20042;-77
2021/06/06 08:25:46;;;;;;;39.45;20.30;;;;;;;-150.07;53.89;63607.38;4957293;29;20058;-77
2021/06/06 08:28:14;;;;;;;43.65;19.40;;;;;;;-150.07;54.19;63538.28;4957509;29;20039;-78
2021/06/06 08:30:51;;;;;;;33.10;19.33;;;;;;;-150.07;54.85;63408.47;4956933;29;20114;-79
2021/06/06 08:33:21;;;;;;;40.88;19.05;;;;;;;-150.07;54.37;63529.91;4959214;29;20028;-77
2021/06/06 08:35:48;;;;;;;33.40;19.88;;;;;;;-150.07;54.62;63257.75;4962577;29;20031;-77
2021/06/06 08:38:15;;;;;;;29.98;19.23;;;;;;;-150.07;54.57;63337.28;4964675;28;20024;-78
2021/06/06 08:41:09;;;;;;;39.67;20.42;;;;;;;-150.07;55.08;63414.75;4954907;28;20506;-79
2021/06/06 08:44:08;;;;;;;41.67;19.27;;;;;;;-150.07;54.55;63546.66;4935486;29;20492;-78
2021/06/06 08:46:43;;;;;;;43.55;17.85;;;;;;;-150.07;54.16;63601.09;4948547;28;20071;-78
2021/06/06 08:49:11;;;;;;;37.28;18.08;;;;;;;-150.07;54.28;63609.47;4950876;28;20031;-79
2021/06/06 08:51:42;;;;;;;37.30;19.23;;;;;;;-150.07;54.43;63504.78;4941527;29;20027;-78
2021/06/06 08:54:31;;;;;;;30.05;17.92;;;;;;;-150.07;54.85;63483.84;4950253;29;20059;-77
2021/06/06 08:57:09;;;;;;;37.33;21.38;;;;;;;-150.07;54.96;63475.47;4964119;28;20035;-84
2021/06/06 08:59:46;;;;;;;34.60;17.95;;;;;;;-150.07;54.65;63529.91;4954029;29;20035;-88
2021/06/06 09:02:19;;;;;;;43.13;19.95;;;;;;;-150.07;54.40;63571.78;4967549;28;20027;-83
2021/06/06 09:05:13;;;;;;;31.35;18.00;;;;;;;-150.07;54.98;63479.66;4946146;29;20023;-84
2021/06/06 09:07:45;;;;;;;31.38;20.02;;;;;;;-150.07;54.99;63176.09;4955588;29;20047;-85
2021/06/06 09:10:18;;;;;;;43.95;17.95;;;;;;;-150.07;55.21;63536.19;4975499;28;20023;-83
2021/06/06 09:12:46;;;;;;;42.28;18.85;;;;;;;-150.07;54.57;63584.34;4969924;28;20042;-81
2021/06/06 09:15:15;;;;;;;34.55;18.65;;;;;;;-150.07;54.40;63642.94;4956234;29;20807;-84
2021/06/06 09:17:56;;;;;;;34.80;21.83;;;;;;;-150.07;54.10;64279.47;4944772;28;20486;-78
2021/06/06 09:20:36;;;;;;;31.33;16.88;;;;;;;-150.07;53.94;63682.72;4944922;29;20036;-82
2021/06/06 09:23:16;;;;;;;29.58;16.55;;;;;;;-150.07;54.01;63312.16;4953054;29;20166;-82
2021/06/06 09:25:46;;;;;;;40.60;18.77;;;;;;;-150.07;53.74;63575.97;4948092;28;20074;-79
2021/06/06 09:28:25;;;;;;;41.80;16.38;;;;;;;-150.07;53.53;63609.47;4953207;28;20031;-83
2021/06/06 09:31:16;;;;;;;31.83;16.35;;;;;;;-150.07;54.54;63550.84;4952023;29;20035;-84
2021/06/06 09:33:48;;;;;;;38.80;17.42;;;;;;;-150.07;54.94;63529.91;4952029;28;20426;-83
2021/06/06 09:36:24;;;;;;;31.75;17.65;;;;;;;-150.07;54.70;63605.28;4952365;29;20019;-79
2021/06/06 09:39:07;;;;;;;33.50;16.80;;;;;;;-150.07;55.46;63743.44;4950546;29;20134;-83
2021/06/06 09:41:36;;;;;;;33.58;18.48;;;;;;;-150.07;55.79;63446.16;4951738;28;20444;-84
2021/06/06 09:44:12;;;;;;;31.67;17.00;;;;;;;-150.07;56.03;63418.94;4961772;28;20024;-84
2021/06/06 09:46:43;;;;;;;36.25;19.40;;;;;;;-150.07;56.01;63423.13;4966417;29;20037;-87
2021/06/06 09:49:33;;;;;;;47.67;20.33;;;;;;;-150.07;56.62;63339.38;4965509;28;20122;-86
2021/06/06 09:52:17;;;;;;;37.17;20.77;;;;;;;-150.07;56.61;63387.53;4941293;29;20070;-82
2021/06/06 09:54:58;;;;;;;38.55;18.55;;;;;;;-150.07;56.94;63291.22;4950777;29;20031;-80
2021/06/06 09:57:32;;;;;;;38.05;17.38;;;;;;;-150.07;57.04;63335.19;4952158;28;20520;-82
2021/06/06 10:00:27;;;;;;;40.33;19.52;;;;;;;-150.07;57.86;62880.94;4952246;28;20042;-82
2021/06/06 10:03:29;;;;;;;45.63;17.65;;;;;;;-150.07;57.84;63174.00;4951393;28;20118;-78
2021/06/06 10:06:15;;;;;;;40.63;17.85;;;;;;;-150.07;57.69;63253.56;4929288;28;20035;-78
2021/06/06 10:08:43;;;;;;;36.47;19.77;;;;;;;-150.07;57.51;63232.63;4946078;28;20086;-77
2021/06/06 10:11:16;;;;;;;40.05;19.17;;;;;;;-150.07;57.80;63217.97;4957974;28;20397;-76
2021/06/06 10:13:49;;;;;;;33.40;19.25;;;;;;;-150.07;58.00;63829.28;4947743;29;20031;-78
2021/06/06 10:16:29;;;;;;;42.03;19.33;;;;;;;-150.07;58.07;63190.75;4950064;28;20037;-81
2021/06/06 10:19:23;;;;;;;33.42;18.42;;;;;;;-150.07;57.90;63230.53;4951585;29;20066;-80
2021/06/06 10:21:53;;;;;;;40.33;17.77;;;;;;;-150.07;58.18;63048.41;4946009;28;20043;-79
2021/06/06 10:24:32;;;;;;;32.95;17.75;;;;;;;-150.07;57.91;63044.22;4954970;28;20027;-78
2021/06/06 10:27:07;;;;;;;31.38;19.27;;;;;;;-150.07;58.15;63188.66;4945041;29;20031;-78
2021/06/06 10:29:53;;;;;;;38.90;19.50;;;;;;;-150.07;58.70;63025.38;4952418;28;20112;-79
2021/06/06 10:32:33;;;;;;;37.10;19.88;;;;;;;-150.07;59.72;62981.41;4950722;29;20023;-78
2021/06/06 10:35:14;;;;;;;33.20;18.02;;;;;;;-150.07;59.59;63048.41;4950656;29;20051;-78
2021/06/06 10:37:45;;;;;;;32.25;18.17;;;;;;;-150.07;59.27;63885.81;4951963;28;20038;-79
2021/06/06 10:40:40;;;;;;;31.17;17.38;;;;;;;-150.07;58.92;62820.22;4946821;28;20051;-78
2021/06/06 10:43:16;;;;;;;46.58;17.85;;;;;;;-150.07;58.79;63123.75;4952874;28;20036;-77
2021/06/06 10:45:51;;;;;;;49.10;20.25;;;;;;;-150.07;58.25;63217.97;4950725;28;20031;-77
2021/06/06 10:48:36;;;;;;;37.08;17.60;;;;;;;-150.07;58.44;63107.00;4949990;29;20109;-77
2021/06/06 10:51:10;;;;;;;35.03;16.70;;;;;;;-150.07;58.42;63192.84;4946016;29;20030;-77
2021/06/06 10:53:38;;;;;;;38.63;18.17;;;;;;;-150.07;58.19;63211.69;4951443;28;20559;-77
2021/06/06 10:56:15;;;;;;;45.55;19.77;;;;;;;-150.07;58.39;63092.34;4949409;29;20023;-77
2021/06/06 10:59:05;;;;;;;37.35;18.42;;;;;;;-150.07;58.61;63113.28;4948476;28;20094;-78
2021/06/06 11:01:44;;;;;;;35.95;17.30;;;;;;;-150.07;58.89;63140.50;4945876;29;20031;-79
2021/06/06 11:04:22;;;;;;;35.30;17.73;;;;;;;-150.07;59.77;63006.53;4952386;28;20154;-77
2021/06/06 11:07:09;;;;;;;38.13;19.15;;;;;;;-150.07;59.87;62983.50;4947678;28;20036;-78
2021/06/06 11:09:39;;;;;;;34.53;17.98;;;;;;;-150.07;59.85;62895.59;4944804;28;20028;-76
2021/06/06 11:12:24;;;;;;;34.53;16.40;;;;;;;-150.07;59.12;62834.88;4949815;28;20019;-77
2021/06/06 11:14:52;;;;;;;28.85;17.40;;;;;;;-150.07;58.94;63837.66;4949406;29;20030;-77
2021/06/06 11:17:35;;;;;;;41.28;18.27;;;;;;;-150.07;59.23;63067.22;4956446;28;20019;-88
2021/06/06 11:20:19;;;;;;;43.63;18.77;;;;;;;-150.07;59.32;63056.78;4947439;28;20035;-78
2021/06/06 11:22:48;;;;;;;31.70;16.95;;;;;;;-150.07;59.77;62596.25;4952468;28;20029;-78
2021/06/06 11:25:36;;;;;;;52.85;22.35;;;;;;;-150.07;59.77;63040.03;4951379;28;20061;-86